createdAt,value
2022-08-24T00:02:11.109Z,97256.50
2022-08-24T00:06:15.220Z,97270.09
2022-08-24T00:10:13.562Z,97278.94
2022-08-24T00:14:12.127Z,97275.47
2022-08-24T00:18:09.279Z,97280.06
2022-08-24T00:22:06.404Z,97262.31
2022-08-24T00:26:05.414Z,97265.00
2022-08-24T00:30:05.915Z,97267.69
2022-08-24T00:34:03.654Z,97247.78
2022-08-24T00:38:00.774Z,97268.16
2022-08-24T00:41:57.873Z,97252.66
2022-08-24T00:46:17.071Z,97263.63
2022-08-24T00:50:29.697Z,97231.16
2022-08-24T00:54:31.999Z,97267.88
2022-08-24T00:58:36.773Z,97266.53
2022-08-24T01:02:42.228Z,97272.41
2022-08-24T01:06:39.630Z,97276.13
2022-08-24T01:10:45.492Z,97271.88
2022-08-24T01:14:43.591Z,97268.53
2022-08-24T01:18:50.478Z,97272.16
2022-08-24T01:23:22.711Z,97275.56
2022-08-24T01:27:22.924Z,97254.31
2022-08-24T01:31:26.095Z,97254.94
2022-08-24T01:35:24.126Z,97257.06
2022-08-24T01:39:27.023Z,97271.72
2022-08-24T01:43:25.004Z,97275.41
2022-08-24T01:47:22.355Z,97243.19
2022-08-24T01:51:21.333Z,97249.25
2022-08-24T01:55:22.471Z,97266.25
2022-08-24T01:59:20.811Z,97265.94
2022-08-24T02:03:17.948Z,97244.50
2022-08-24T02:07:23.248Z,97271.81
2022-08-24T02:11:20.431Z,97263.81
2022-08-24T02:15:17.431Z,97254.38
2022-08-24T02:19:14.645Z,97233.13
2022-08-24T02:23:12.163Z,97258.53
2022-08-24T02:27:09.351Z,97223.25
2022-08-24T02:31:09.798Z,97268.94
2022-08-24T02:35:07.266Z,97265.25
2022-08-24T02:39:05.872Z,97276.34
2022-08-24T02:43:04.560Z,97234.31
2022-08-24T02:47:01.770Z,97264.06
2022-08-24T02:50:59.239Z,97262.22
2022-08-24T02:54:57.686Z,97268.69
2022-08-24T02:58:55.111Z,97259.47
2022-08-24T03:02:53.319Z,97275.16
2022-08-24T03:06:51.228Z,97275.22
2022-08-24T03:10:48.326Z,97263.66
2022-08-24T03:14:46.924Z,97273.72
2022-08-24T03:18:45.551Z,97263.53
2022-08-24T03:22:44.912Z,97287.09
2022-08-24T03:26:44.267Z,97262.59
2022-08-24T03:30:46.826Z,97289.81
2022-08-24T03:34:46.645Z,97283.63
2022-08-24T03:38:43.709Z,97277.34
2022-08-24T03:42:41.115Z,97297.91
2022-08-24T03:46:40.685Z,97293.25
2022-08-24T03:50:37.748Z,97277.25
2022-08-24T03:54:35.083Z,97257.19
2022-08-24T03:58:32.194Z,97311.56
2022-08-24T04:02:32.869Z,97287.78
2022-08-24T04:06:30.727Z,97302.56
2022-08-24T04:10:28.883Z,97271.34
2022-08-24T04:14:27.392Z,97283.75
2022-08-24T04:18:36.748Z,97288.06
2022-08-24T04:22:34.382Z,97249.16
2022-08-24T04:26:45.730Z,97296.09
2022-08-24T04:30:51.519Z,97283.19
2022-08-24T04:35:03.871Z,97283.06
2022-08-24T04:39:05.426Z,97271.09
2022-08-24T04:43:33.162Z,97309.75
2022-08-24T04:47:30.307Z,97291.78
2022-08-24T04:51:27.394Z,97304.59
2022-08-24T04:55:41.234Z,97319.00
2022-08-24T04:59:38.314Z,97319.31
2022-08-24T05:03:35.432Z,97312.66
2022-08-24T05:07:32.477Z,97259.50
2022-08-24T05:11:30.108Z,97321.47
2022-08-24T05:15:28.038Z,97317.50
2022-08-24T05:19:25.532Z,97335.97
2022-08-24T05:23:23.283Z,97323.03
2022-08-24T05:27:21.350Z,97336.13
2022-08-24T05:31:25.453Z,97332.97
2022-08-24T05:35:22.538Z,97336.78
2022-08-24T05:39:21.267Z,97335.84
2022-08-24T05:43:24.559Z,97334.22
2022-08-24T05:47:21.779Z,97347.16
2022-08-24T05:51:19.406Z,97345.75
2022-08-24T05:55:25.484Z,97334.59
2022-08-24T05:59:22.836Z,97326.31
2022-08-24T06:03:20.249Z,97351.34
2022-08-24T06:07:20.745Z,97347.69
2022-08-24T06:11:29.961Z,97347.50
2022-08-24T06:15:28.326Z,97327.38
2022-08-24T06:19:27.203Z,97346.50
2022-08-24T06:23:25.303Z,97334.19
2022-08-24T06:27:29.982Z,97333.38
2022-08-24T06:31:29.208Z,97316.25
2022-08-24T06:35:36.625Z,97332.34
2022-08-24T06:39:33.840Z,97322.72
2022-08-24T06:43:32.523Z,97348.69
2022-08-24T06:47:32.327Z,97339.25
2022-08-24T06:51:32.528Z,97350.94
2022-08-24T06:55:30.983Z,97333.44
2022-08-24T06:59:29.562Z,97352.41
2022-08-24T07:03:26.961Z,97349.16
2022-08-24T07:07:37.619Z,97355.13
2022-08-24T07:11:36.144Z,97346.13
2022-08-24T07:15:35.671Z,97313.56
2022-08-24T07:19:42.433Z,97343.69
2022-08-24T07:23:41.161Z,97356.03
2022-08-24T07:27:39.802Z,97342.44
2022-08-24T07:31:39.932Z,97347.59
2022-08-24T07:35:57.590Z,97340.94
2022-08-24T07:39:54.919Z,97355.56
2022-08-24T07:43:56.765Z,97331.59
2022-08-24T07:47:56.032Z,97353.50
2022-08-24T07:52:05.872Z,97350.19
2022-08-24T07:56:03.961Z,97340.13
2022-08-24T08:00:07.072Z,97351.09
2022-08-24T08:04:12.249Z,97350.50
2022-08-24T08:08:10.093Z,97362.88
2022-08-24T08:12:08.269Z,97347.38
2022-08-24T08:16:08.571Z,97342.16
2022-08-24T08:20:08.976Z,97332.69
2022-08-24T08:24:16.736Z,97352.84
2022-08-24T08:28:26.215Z,97338.81
2022-08-24T08:32:31.389Z,97343.44
2022-08-24T08:36:28.655Z,97327.88
2022-08-24T08:40:45.363Z,97347.19
2022-08-24T08:45:27.170Z,97327.59
2022-08-24T08:50:21.963Z,97345.22
2022-08-24T08:54:37.361Z,97337.56
2022-08-24T08:59:11.422Z,97341.38
2022-08-24T09:03:32.474Z,97340.00
2022-08-24T09:08:20.020Z,97333.69
2022-08-24T09:12:43.735Z,97305.59
2022-08-24T09:17:18.602Z,97313.91
2022-08-24T09:22:03.439Z,97330.00
2022-08-24T09:26:29.247Z,97321.59
2022-08-24T09:31:06.851Z,97322.63
2022-08-24T09:35:12.534Z,97320.69
2022-08-24T09:40:00.517Z,97309.03
2022-08-24T09:44:39.636Z,97306.44
2022-08-24T09:49:26.886Z,97298.78
2022-08-24T09:53:40.767Z,97306.59
2022-08-24T09:58:01.906Z,97305.16
2022-08-24T10:02:43.831Z,97302.53
2022-08-24T10:07:30.046Z,97299.41
2022-08-24T10:11:57.591Z,97306.31
2022-08-24T10:16:17.780Z,97301.34
2022-08-24T10:20:32.857Z,97280.53
2022-08-24T10:25:02.562Z,97275.72
2022-08-24T10:30:03.450Z,97267.88
2022-08-24T10:34:36.135Z,97282.03
2022-08-24T10:39:33.255Z,97283.59
2022-08-24T10:44:18.658Z,97254.34
2022-08-24T10:48:34.689Z,97273.22
2022-08-24T10:53:17.891Z,97267.13
2022-08-24T10:57:36.452Z,97277.13
2022-08-24T11:01:40.126Z,97273.84
2022-08-24T11:05:47.873Z,97288.81
2022-08-24T11:09:59.089Z,97277.28
2022-08-24T11:14:09.610Z,97283.81
2022-08-24T11:18:06.750Z,97278.91
2022-08-24T11:22:41.666Z,97279.44
2022-08-24T11:26:57.327Z,97271.63
2022-08-24T11:30:54.427Z,97247.88
2022-08-24T11:34:51.688Z,97237.09
2022-08-24T11:39:09.391Z,97264.78
2022-08-24T11:44:02.090Z,97249.22
2022-08-24T11:48:15.679Z,97271.59
2022-08-24T11:52:50.734Z,97276.38
2022-08-24T11:57:08.477Z,97276.28
2022-08-24T12:01:23.931Z,97277.16
2022-08-24T12:05:49.299Z,97275.81
2022-08-24T12:10:09.831Z,97276.88
2022-08-24T12:14:26.702Z,97264.56
2022-08-24T12:18:56.667Z,97250.84
2022-08-24T12:23:02.692Z,97247.56
2022-08-24T12:27:11.439Z,97242.13
2022-08-24T12:31:28.363Z,97235.75
2022-08-24T12:35:38.207Z,97250.41
2022-08-24T12:40:25.375Z,97239.56
2022-08-24T12:44:34.674Z,97251.16
2022-08-24T12:48:54.937Z,97247.13
2022-08-24T12:53:43.495Z,97257.63
2022-08-24T12:58:54.645Z,97252.75
2022-08-24T13:02:48.283Z,97254.63
2022-08-24T13:06:59.913Z,97229.56
2022-08-24T13:11:10.587Z,97260.13
2022-08-24T13:15:31.652Z,97262.06
2022-08-24T13:19:28.672Z,97260.16
2022-08-24T13:23:27.419Z,97265.72
2022-08-24T13:27:24.785Z,97269.69
2022-08-24T13:31:35.036Z,97264.94
2022-08-24T13:35:41.082Z,97263.78
2022-08-24T13:40:02.789Z,97264.13
2022-08-24T13:44:41.742Z,97269.19
2022-08-24T13:49:02.763Z,97270.41
2022-08-24T13:53:37.383Z,97234.31
2022-08-24T13:57:42.318Z,97264.22
2022-08-24T14:02:08.051Z,97254.47
2022-08-24T14:06:31.994Z,97260.50
2022-08-24T14:10:42.715Z,97252.03
2022-08-24T14:15:41.929Z,97254.66
2022-08-24T14:20:09.893Z,97255.56
2022-08-24T14:24:43.850Z,97251.91
2022-08-24T14:28:44.012Z,97247.53
2022-08-24T14:33:00.333Z,97243.34
2022-08-24T14:37:32.955Z,97238.06
2022-08-24T14:42:01.005Z,97244.72
2022-08-24T14:46:10.947Z,97229.78
2022-08-24T14:50:23.501Z,97226.41
2022-08-24T14:54:57.563Z,97238.31
2022-08-24T14:59:34.243Z,97199.53
2022-08-24T15:04:09.031Z,97226.03
2022-08-24T15:08:11.781Z,97233.84
2022-08-24T15:12:35.404Z,97225.28
2022-08-24T15:17:10.566Z,97224.75
2022-08-24T15:21:36.171Z,97214.25
2022-08-24T15:26:04.836Z,97207.78
2022-08-24T15:30:07.906Z,97211.47
2022-08-24T15:34:05.446Z,97201.44
2022-08-24T15:38:31.584Z,97213.72
2022-08-24T15:42:34.638Z,97203.66
2022-08-24T15:46:54.310Z,97199.72
2022-08-24T15:50:55.142Z,97224.09
2022-08-24T15:55:01.383Z,97206.22
2022-08-24T15:59:28.387Z,97206.72
2022-08-24T16:03:54.767Z,97195.22
2022-08-24T16:08:03.213Z,97211.00
2022-08-24T16:12:09.127Z,97201.78
2022-08-24T16:16:15.933Z,97189.16
2022-08-24T16:20:25.170Z,97202.59
2022-08-24T16:24:22.044Z,97211.06
2022-08-24T16:28:21.815Z,97205.00
2022-08-24T16:32:33.038Z,97207.78
2022-08-24T16:36:40.470Z,97154.34
2022-08-24T16:40:37.827Z,97165.28
2022-08-24T16:44:40.578Z,97198.16
2022-08-24T16:48:37.627Z,97200.91
2022-08-24T16:52:34.689Z,97197.53
2022-08-24T16:56:31.774Z,97187.66
2022-08-24T17:00:29.279Z,97187.81
2022-08-24T17:04:26.650Z,97186.16
2022-08-24T17:08:28.578Z,97196.00
2022-08-24T17:12:26.948Z,97196.81
2022-08-24T17:16:24.111Z,97179.41
2022-08-24T17:20:21.313Z,97200.84
2022-08-24T17:24:23.032Z,97191.03
2022-08-24T17:28:20.088Z,97199.63
2022-08-24T17:32:17.081Z,97181.22
2022-08-24T17:36:20.416Z,97191.28
2022-08-24T17:40:26.393Z,97197.91
2022-08-24T17:44:28.995Z,97190.31
2022-08-24T17:48:27.497Z,97205.31
2022-08-24T17:52:24.509Z,97202.16
2022-08-24T17:56:21.777Z,97205.50
2022-08-24T18:00:19.549Z,97213.25
2022-08-24T18:04:17.246Z,97212.63
2022-08-24T18:08:14.772Z,97202.19
2022-08-24T18:12:12.259Z,97214.69
2022-08-24T18:16:17.923Z,97226.78
2022-08-24T18:20:21.342Z,97232.00
2022-08-24T18:24:18.635Z,97224.84
2022-08-24T18:28:19.982Z,97237.66
2022-08-24T18:32:17.923Z,97247.31
2022-08-24T18:36:14.999Z,97245.00
2022-08-24T18:40:15.691Z,97234.16
2022-08-24T18:44:27.204Z,97236.38
2022-08-24T18:48:28.227Z,97247.16
2022-08-24T18:52:26.662Z,97270.75
2022-08-24T18:56:24.821Z,97275.69
2022-08-24T19:00:21.931Z,97257.16
2022-08-24T19:04:19.060Z,97254.56
2022-08-24T19:08:20.020Z,97276.41
2022-08-24T19:12:18.214Z,97278.00
2022-08-24T19:16:15.318Z,97259.16
2022-08-24T19:20:13.797Z,97285.09
2022-08-24T19:24:10.929Z,97282.16
2022-08-24T19:28:08.294Z,97270.94
2022-08-24T19:32:10.093Z,97282.78
2022-08-24T19:36:18.181Z,97275.31
2022-08-24T19:40:17.434Z,97287.44
2022-08-24T19:44:37.674Z,97260.09
2022-08-24T19:48:40.073Z,97282.31
2022-08-24T19:52:39.979Z,97283.19
2022-08-24T19:56:37.031Z,97267.44
2022-08-24T20:00:42.653Z,97282.50
2022-08-24T20:04:45.332Z,97293.50
2022-08-24T20:08:43.730Z,97292.69
2022-08-24T20:12:45.698Z,97296.34
2022-08-24T20:16:42.910Z,97296.91
2022-08-24T20:20:40.479Z,97301.84
2022-08-24T20:24:37.538Z,97301.81
2022-08-24T20:28:42.686Z,97313.81
2022-08-24T20:32:39.747Z,97300.97
2022-08-24T20:36:48.217Z,97301.25
2022-08-24T20:40:46.322Z,97298.69
2022-08-24T20:44:44.690Z,97292.06
2022-08-24T20:48:43.153Z,97305.94
2022-08-24T20:52:42.251Z,97299.50
2022-08-24T20:56:39.443Z,97278.28
2022-08-24T21:00:37.501Z,97271.34
2022-08-24T21:04:34.606Z,97307.94
2022-08-24T21:08:32.672Z,97308.59
2022-08-24T21:12:32.712Z,97294.47
2022-08-24T21:16:30.067Z,97285.34
2022-08-24T21:20:28.125Z,97298.06
2022-08-24T21:24:25.966Z,97311.47
2022-08-24T21:28:23.186Z,97296.78
2022-08-24T21:32:38.706Z,97303.31
2022-08-24T21:36:37.096Z,97309.25
2022-08-24T21:40:35.660Z,97327.59
2022-08-24T21:44:33.702Z,97316.44
2022-08-24T21:48:30.719Z,97285.38
2022-08-24T21:52:27.793Z,97305.25
2022-08-24T21:56:29.126Z,97319.69
2022-08-24T22:00:26.224Z,97292.97
2022-08-24T22:04:23.308Z,97316.28
2022-08-24T22:08:20.361Z,97302.66
2022-08-24T22:12:18.414Z,97309.63
2022-08-24T22:16:15.508Z,97280.41
2022-08-24T22:20:21.709Z,97276.69
2022-08-24T22:24:20.551Z,97276.50
2022-08-24T22:28:18.040Z,97274.34
2022-08-24T22:32:15.365Z,97279.13
2022-08-24T22:36:13.831Z,97284.03
2022-08-24T22:40:12.753Z,97293.50
2022-08-24T22:44:19.460Z,97275.59
2022-08-24T22:48:16.575Z,97304.63
2022-08-24T22:52:15.474Z,97294.94
2022-08-24T22:56:25.613Z,97266.56
2022-08-24T23:00:22.952Z,97287.50
2022-08-24T23:04:28.934Z,97287.81
2022-08-24T23:08:25.930Z,97301.78
2022-08-24T23:12:24.350Z,97290.28
2022-08-24T23:16:21.415Z,97302.34
2022-08-24T23:20:19.339Z,97292.34
2022-08-24T23:24:16.528Z,97282.13
2022-08-24T23:28:13.529Z,97273.31
2022-08-24T23:32:10.660Z,97285.97
2022-08-24T23:36:17.582Z,97253.28
2022-08-24T23:40:15.271Z,97281.19
2022-08-24T23:44:25.997Z,97261.88
2022-08-24T23:48:23.011Z,97254.44
2022-08-24T23:52:28.383Z,97263.53
2022-08-24T23:56:30.799Z,97244.81
